Time;durP1;ratioP1;P1;durP2;ratioP2;P2;SDS_P1;SDS_P2;PMS_P1;PMS_P2;Temp;Humidity;BMP_temperature;BMP_pressure;BME280_temperature;BME280_humidity;BME280_pressure;Samples;Min_cycle;Max_cycle;Signal;HPM_P1;HPM_P2
2023/05/13 00:01:40;;;;;;;21.20;8.10;;;;;;;6.89;78.87;100867.96;107307;1281;22572;-43
2023/05/13 00:04:07;;;;;;;19.00;8.10;;;;;;;6.85;79.21;100869.23;107692;1280;25566;-44
2023/05/13 00:06:34;;;;;;;18.00;8.70;;;;;;;6.84;79.20;100872.52;107171;1280;22641;-44
2023/05/13 00:09:02;;;;;;;17.10;7.60;;;;;;;6.83;79.37;100874.02;107984;1280;22646;-43
2023/05/13 00:11:29;;;;;;;16.20;7.60;;;;;;;6.83;79.58;100871.61;107299;1280;24203;-51
2023/05/13 00:13:56;;;;;;;17.50;7.20;;;;;;;6.81;79.66;100876.26;107541;1281;22541;-44
2023/05/13 00:16:26;;;;;;;19.40;8.00;;;;;;;6.78;79.60;100873.58;107100;1281;22547;-51
2023/05/13 00:18:54;;;;;;;17.80;7.60;;;;;;;6.74;79.95;100876.09;108913;1281;22759;-43
2023/05/13 00:21:22;;;;;;;14.40;5.90;;;;;;;6.72;80.16;100873.07;107760;1281;22526;-43
2023/05/13 00:23:49;;;;;;;22.90;6.30;;;;;;;6.70;80.59;100877.02;107120;1281;24698;-51
2023/05/13 00:26:16;;;;;;;14.30;6.90;;;;;;;6.70;80.61;100875.27;107147;1281;23863;-43
2023/05/13 00:28:44;;;;;;;30.00;8.70;;;;;;;6.70;80.54;100875.62;107277;1281;22695;-51
2023/05/13 00:31:11;;;;;;;13.40;7.10;;;;;;;6.72;80.89;100872.02;106916;1281;22526;-46
2023/05/13 00:33:38;;;;;;;17.60;6.30;;;;;;;6.75;80.64;100874.71;106927;1281;22543;-46
2023/05/13 00:36:06;;;;;;;14.50;6.30;;;;;;;6.76;80.73;100875.95;106777;1281;22533;-53
2023/05/13 00:38:33;;;;;;;13.00;5.80;;;;;;;6.77;80.62;100876.83;107415;1281;24748;-43
2023/05/13 00:41:01;;;;;;;13.50;5.00;;;;;;;6.78;80.06;100876.52;107102;1281;22511;-51
2023/05/13 00:43:29;;;;;;;12.40;4.50;;;;;;;6.80;79.93;100879.18;106937;1281;25389;-43
2023/05/13 00:45:56;;;;;;;10.80;4.60;;;;;;;6.81;79.14;100879.20;106683;1281;25233;-43
2023/05/13 00:48:24;;;;;;;11.80;4.60;;;;;;;6.78;78.86;100878.77;106751;1281;24263;-44
2023/05/13 00:50:51;;;;;;;12.00;4.30;;;;;;;6.74;79.14;100879.38;106774;1281;23903;-53
2023/05/13 00:53:18;;;;;;;9.30;4.30;;;;;;;6.72;79.04;100876.55;106814;1281;24743;-51
2023/05/13 00:55:45;;;;;;;17.40;5.40;;;;;;;6.70;79.63;100874.59;107027;1281;22748;-54
2023/05/13 00:58:12;;;;;;;12.10;5.50;;;;;;;6.69;79.90;100876.66;107157;1281;22538;-53
2023/05/13 01:00:51;;;;;;;8.50;5.30;;;;;;;6.69;79.98;100874.39;106561;1281;22687;-45
2023/05/13 01:03:24;;;;;;;8.30;4.80;;;;;;;6.69;80.07;100875.10;106477;1281;22847;-45
2023/05/13 01:06:09;;;;;;;12.40;4.50;;;;;;;6.69;80.62;100875.61;107112;1281;23524;-44
2023/05/13 01:08:42;;;;;;;14.60;4.10;;;;;;;6.68;80.64;100876.96;106826;1281;22543;-53
2023/05/13 01:11:16;;;;;;;6.90;4.20;;;;;;;6.64;80.45;100876.52;106897;1281;24174;-48
2023/05/13 01:13:44;;;;;;;16.70;4.50;;;;;;;6.59;80.24;100873.96;106815;1281;22524;-44
2023/05/13 01:16:20;;;;;;;14.60;5.70;;;;;;;6.50;80.16;100870.43;106972;1281;24242;-43
2023/05/13 01:18:51;;;;;;;9.60;4.70;;;;;;;6.41;80.49;100870.92;106649;1281;22540;-45
2023/05/13 01:21:27;;;;;;;17.40;4.60;;;;;;;6.38;81.11;100870.48;107262;1281;24319;-52
2023/05/13 01:23:54;;;;;;;15.10;5.00;;;;;;;6.37;80.96;100868.54;107056;1281;23168;-51
2023/05/13 01:26:23;;;;;;;12.40;4.70;;;;;;;6.35;81.08;100863.48;106760;1281;23012;-53
2023/05/13 01:28:50;;;;;;;11.70;4.30;;;;;;;6.37;81.15;100861.26;107115;1281;22536;-51
2023/05/13 01:31:18;;;;;;;11.70;4.10;;;;;;;6.38;81.21;100867.20;106777;1281;22561;-50
2023/05/13 01:33:45;;;;;;;12.60;4.90;;;;;;;6.37;81.41;100864.05;106837;1281;24223;-44
2023/05/13 01:36:13;;;;;;;11.80;5.70;;;;;;;6.38;81.63;100867.03;107235;1281;22480;-45
2023/05/13 01:38:40;;;;;;;19.20;5.00;;;;;;;6.40;81.46;100867.42;106693;1281;22547;-44
2023/05/13 01:41:07;;;;;;;11.50;5.00;;;;;;;6.41;81.20;100869.00;106463;1281;22716;-54
2023/05/13 01:43:35;;;;;;;9.50;4.50;;;;;;;6.42;81.33;100868.48;106701;1281;22542;-45
2023/05/13 01:46:03;;;;;;;7.70;4.70;;;;;;;6.43;81.48;100862.12;106503;1281;22536;-44
2023/05/13 01:48:30;;;;;;;11.80;5.20;;;;;;;6.44;81.54;100863.87;106856;1281;22568;-43
2023/05/13 01:50:57;;;;;;;10.80;4.80;;;;;;;6.44;81.76;100862.13;107165;1281;25354;-44
2023/05/13 01:53:24;;;;;;;10.40;5.60;;;;;;;6.44;81.94;100861.83;106651;1281;22540;-44
2023/05/13 01:55:51;;;;;;;15.10;4.10;;;;;;;6.44;82.07;100862.14;107181;1281;22647;-53
2023/05/13 01:58:19;;;;;;;15.90;5.10;;;;;;;6.46;82.04;100861.16;106850;1281;25321;-51
2023/05/13 02:00:46;;;;;;;5.50;3.80;;;;;;;6.48;82.31;100865.71;107508;1281;22789;-43
2023/05/13 02:03:13;;;;;;;5.40;3.20;;;;;;;6.50;82.15;100864.55;106934;1281;25224;-44
2023/05/13 02:05:41;;;;;;;13.90;3.20;;;;;;;6.48;81.67;100867.27;106942;1281;22534;-51
2023/05/13 02:08:08;;;;;;;10.80;3.90;;;;;;;6.44;81.66;100864.92;107346;1281;22533;-51
2023/05/13 02:10:36;;;;;;;7.40;3.80;;;;;;;6.43;81.72;100867.12;107486;1281;22616;-53
2023/05/13 02:13:03;;;;;;;10.70;3.50;;;;;;;6.40;81.58;100867.95;107444;1281;22517;-45
2023/05/13 02:15:30;;;;;;;10.70;4.50;;;;;;;6.37;81.27;100871.34;106561;1281;24304;-45
2023/05/13 02:17:57;;;;;;;12.10;3.30;;;;;;;6.33;81.56;100872.08;106772;1281;22537;-52
2023/05/13 02:20:25;;;;;;;12.50;3.50;;;;;;;6.27;81.50;100869.66;106959;1281;22777;-45
2023/05/13 02:22:52;;;;;;;4.60;3.40;;;;;;;6.21;81.96;100870.02;106862;1261;22531;-43
2023/05/13 02:25:19;;;;;;;15.80;3.80;;;;;;;6.17;81.86;100870.63;107042;1281;23876;-52
2023/05/13 02:27:46;;;;;;;8.30;3.70;;;;;;;6.18;81.92;100873.76;107568;1281;22643;-51
2023/05/13 02:30:13;;;;;;;4.20;3.10;;;;;;;6.19;82.15;100872.22;106907;1281;22517;-52
2023/05/13 02:32:42;;;;;;;4.20;3.30;;;;;;;6.17;82.06;100874.60;107155;1281;22922;-51
2023/05/13 02:35:10;;;;;;;5.80;3.30;;;;;;;6.14;81.92;100873.98;106979;1281;25269;-51
2023/05/13 02:37:37;;;;;;;4.80;3.30;;;;;;;6.12;81.99;100878.79;106976;1281;25284;-44
2023/05/13 02:40:05;;;;;;;10.10;4.10;;;;;;;6.08;82.19;100880.07;107198;1281;24183;-52
2023/05/13 02:42:32;;;;;;;6.70;3.50;;;;;;;6.08;82.03;100881.79;107139;1281;25259;-51
2023/05/13 02:44:59;;;;;;;12.50;4.10;;;;;;;6.08;82.36;100882.48;106466;1281;22647;-44
2023/05/13 02:47:26;;;;;;;7.50;3.70;;;;;;;6.04;82.63;100881.55;107109;1281;22575;-45
2023/05/13 02:49:56;;;;;;;8.40;3.50;;;;;;;6.03;82.84;100882.02;107164;1281;25368;-51
2023/05/13 02:52:23;;;;;;;9.20;4.20;;;;;;;6.05;83.33;100884.68;107112;1281;25390;-51
2023/05/13 02:54:50;;;;;;;11.70;3.30;;;;;;;6.07;83.30;100885.92;106686;1281;22540;-45
2023/05/13 02:57:17;;;;;;;6.20;4.00;;;;;;;6.08;83.50;100883.86;106705;1281;22527;-43
2023/05/13 02:59:44;;;;;;;12.50;4.30;;;;;;;6.07;83.79;100886.79;106729;1281;23902;-43
2023/05/13 03:02:11;;;;;;;10.00;4.00;;;;;;;6.07;83.60;100891.13;106994;1281;22579;-43
2023/05/13 03:04:40;;;;;;;13.90;3.70;;;;;;;6.10;83.88;100888.64;106472;1281;22561;-50
2023/05/13 03:07:07;;;;;;;5.00;3.40;;;;;;;6.13;83.87;100889.92;107003;1281;22579;-50
2023/05/13 03:09:34;;;;;;;8.30;3.90;;;;;;;6.18;83.82;100893.84;106946;1281;25339;-53
2023/05/13 03:12:01;;;;;;;5.10;3.20;;;;;;;6.19;83.54;100895.61;106610;1281;22837;-45
2023/05/13 03:14:28;;;;;;;8.40;4.40;;;;;;;6.20;83.90;100896.31;107097;1282;22650;-44
2023/05/13 03:16:55;;;;;;;9.10;4.30;;;;;;;6.21;83.93;100900.52;106879;1282;23881;-43
2023/05/13 03:19:22;;;;;;;8.80;4.50;;;;;;;6.25;84.01;100899.76;106900;1282;22533;-45
2023/05/13 03:21:49;;;;;;;10.80;4.60;;;;;;;6.30;83.65;100898.34;106999;1282;25330;-44
2023/05/13 03:24:17;;;;;;;8.20;4.40;;;;;;;6.35;83.51;100900.39;106701;1282;25230;-44
2023/05/13 03:26:44;;;;;;;19.20;4.40;;;;;;;6.40;83.20;100900.34;106565;1282;22532;-43
2023/05/13 03:29:12;;;;;;;8.60;4.20;;;;;;;6.47;83.28;100899.66;107411;1281;22662;-52
2023/05/13 03:31:39;;;;;;;8.80;4.30;;;;;;;6.57;83.31;100905.98;106867;1281;22356;-53
2023/05/13 03:34:06;;;;;;;6.70;3.90;;;;;;;6.65;82.84;100906.73;107031;1281;22533;-51
2023/05/13 03:36:33;;;;;;;5.10;4.40;;;;;;;6.71;82.84;100912.75;107120;1281;22539;-52
2023/05/13 03:39:00;;;;;;;10.50;4.10;;;;;;;6.70;82.89;100911.34;106756;1281;22683;-53
2023/05/13 03:41:28;;;;;;;7.60;4.00;;;;;;;6.66;83.04;100912.29;107002;1281;22566;-52
2023/05/13 03:43:56;;;;;;;6.20;3.70;;;;;;;6.64;83.71;100913.62;106850;1281;23178;-45
2023/05/13 03:46:26;;;;;;;8.10;4.20;;;;;;;6.67;84.61;100914.20;107173;1281;22764;-44
2023/05/13 03:48:54;;;;;;;10.50;4.30;;;;;;;6.74;84.74;100912.81;106985;1281;23006;-44
2023/05/13 03:51:22;;;;;;;6.40;3.60;;;;;;;6.86;84.78;100911.75;106928;1272;23130;-44
2023/05/13 03:53:49;;;;;;;7.50;3.60;;;;;;;7.01;84.75;100915.95;106676;1281;24276;-44
2023/05/13 03:56:16;;;;;;;11.20;3.50;;;;;;;7.13;84.29;100920.38;106659;1281;22648;-51
2023/05/13 03:58:44;;;;;;;13.40;6.10;;;;;;;7.26;84.23;100918.61;107369;1281;24207;-44
2023/05/13 04:01:11;;;;;;;6.40;3.30;;;;;;;7.43;84.37;100916.75;106923;1281;22533;-44
2023/05/13 04:03:38;;;;;;;7.20;4.10;;;;;;;7.64;84.06;100913.23;106708;1280;22758;-45
2023/05/13 04:06:05;;;;;;;9.90;3.30;;;;;;;7.84;83.55;100915.55;108268;1280;24755;-45
2023/05/13 04:08:33;;;;;;;11.90;4.10;;;;;;;8.04;82.83;100914.73;107053;1280;22271;-46
2023/05/13 04:11:00;;;;;;;5.70;3.80;;;;;;;8.21;82.15;100913.86;106944;1281;23874;-45
2023/05/13 04:13:27;;;;;;;15.20;5.40;;;;;;;8.37;81.96;100914.71;107036;1280;22560;-53
2023/05/13 04:15:54;;;;;;;10.40;4.00;;;;;;;8.54;81.16;100910.69;107056;1281;22542;-51
2023/05/13 04:18:21;;;;;;;14.50;4.70;;;;;;;8.71;80.01;100911.52;107172;1281;24372;-53
2023/05/13 04:20:48;;;;;;;12.40;4.10;;;;;;;8.88;79.44;100908.48;107205;1280;22647;-45
2023/05/13 04:23:15;;;;;;;7.40;3.90;;;;;;;9.03;78.88;100906.99;106926;1281;22532;-45
2023/05/13 04:25:42;;;;;;;9.20;3.80;;;;;;;9.18;78.00;100911.05;107110;1280;22546;-53
2023/05/13 04:28:09;;;;;;;11.30;4.00;;;;;;;9.34;77.84;100917.05;107168;1281;23060;-44
2023/05/13 04:30:41;;;;;;;7.50;3.70;;;;;;;9.52;77.67;100919.57;106726;1281;26663;-44
2023/05/13 04:33:09;;;;;;;9.20;4.50;;;;;;;9.73;77.39;100921.61;107053;1281;22535;-45
2023/05/13 04:35:37;;;;;;;5.70;3.10;;;;;;;9.95;75.87;100917.17;107311;1280;25428;-44
2023/05/13 04:38:05;;;;;;;10.80;3.50;;;;;;;10.13;74.57;100919.33;106977;1280;22542;-53
2023/05/13 04:40:32;;;;;;;9.00;3.60;;;;;;;10.27;73.48;100922.81;106889;1281;22971;-51
2023/05/13 04:43:04;;;;;;;8.20;3.60;;;;;;;10.38;72.90;100922.76;106931;1281;22519;-46
2023/05/13 04:45:38;;;;;;;8.40;3.70;;;;;;;10.46;72.41;100925.64;106884;1280;22654;-51
2023/05/13 04:48:06;;;;;;;7.00;3.90;;;;;;;10.52;72.25;100925.53;107071;1280;25531;-53
2023/05/13 04:50:34;;;;;;;9.50;3.90;;;;;;;10.59;72.27;100925.08;107130;1280;22533;-45
2023/05/13 04:53:01;;;;;;;9.90;3.40;;;;;;;10.68;71.85;100924.30;107145;1280;22525;-45
2023/05/13 04:55:28;;;;;;;8.10;3.90;;;;;;;10.81;71.34;100922.49;106503;1281;22541;-45
2023/05/13 04:57:55;;;;;;;7.60;3.60;;;;;;;10.97;70.53;100926.64;106782;1280;22497;-52
2023/05/13 05:00:22;;;;;;;12.00;3.50;;;;;;;11.15;69.75;100927.14;107222;1280;22535;-44
2023/05/13 05:02:50;;;;;;;6.20;3.20;;;;;;;11.36;69.06;100925.19;106985;1280;25513;-46
2023/05/13 05:05:17;;;;;;;7.70;3.40;;;;;;;11.56;68.68;100923.05;106635;1281;22535;-44
2023/05/13 05:07:45;;;;;;;5.10;3.30;;;;;;;11.74;67.75;100922.09;107176;1280;23324;-45
2023/05/13 05:10:14;;;;;;;11.30;3.30;;;;;;;11.91;67.44;100921.52;106771;1280;23164;-53
2023/05/13 05:12:47;;;;;;;5.30;3.40;;;;;;;12.08;66.94;100915.99;107217;1270;22534;-45
2023/05/13 05:15:17;;;;;;;6.30;3.60;;;;;;;12.24;66.86;100917.62;107050;1280;26574;-45
2023/05/13 05:17:46;;;;;;;;;;;;;;;12.42;66.40;100916.27;106843;1280;23401;-45
2023/05/13 05:20:14;;;;;;;6.00;3.30;;;;;;;12.61;66.24;100915.42;106702;1280;25619;-54
2023/05/13 05:22:41;;;;;;;5.50;2.90;;;;;;;12.78;65.79;100914.76;107197;1281;22533;-52
2023/05/13 05:25:10;;;;;;;14.60;3.40;;;;;;;12.96;65.26;100914.77;107158;1281;22532;-51
2023/05/13 05:27:37;;;;;;;4.80;3.60;;;;;;;13.15;64.75;100914.59;106858;1280;24202;-45
2023/05/13 05:30:05;;;;;;;9.80;3.10;;;;;;;13.36;64.50;100910.02;107720;1280;22300;-44
2023/05/13 05:32:34;;;;;;;11.00;3.70;;;;;;;13.56;63.74;100909.12;106802;1280;22533;-44
2023/05/13 05:35:02;;;;;;;13.90;5.70;;;;;;;13.74;63.11;100910.11;106525;1280;24204;-45
2023/05/13 05:37:31;;;;;;;17.30;10.70;;;;;;;13.92;63.10;100908.65;107807;1280;22222;-53
2023/05/13 05:39:58;;;;;;;9.70;5.30;;;;;;;14.08;62.67;100906.11;107351;1280;128937;-53
2023/05/13 05:42:25;;;;;;;12.90;4.70;;;;;;;14.26;61.63;100909.36;107800;1280;22605;-45
2023/05/13 05:44:52;;;;;;;12.80;4.40;;;;;;;14.44;60.70;100911.55;107048;1280;22895;-44
2023/05/13 05:47:19;;;;;;;9.40;4.70;;;;;;;14.62;60.39;100910.77;107320;1280;23908;-53
2023/05/13 05:49:46;;;;;;;10.80;4.70;;;;;;;14.80;59.26;100912.72;106841;1280;22539;-46
2023/05/13 05:52:14;;;;;;;12.70;3.90;;;;;;;15.00;58.70;100913.27;106748;1280;22514;-46
2023/05/13 05:54:42;;;;;;;6.30;3.40;;;;;;;15.18;57.62;100910.64;107013;1280;25507;-53
2023/05/13 05:57:09;;;;;;;8.00;3.40;;;;;;;15.34;57.12;100910.86;108067;1280;22587;-52
2023/05/13 05:59:36;;;;;;;9.50;3.30;;;;;;;15.54;56.92;100913.29;108031;1280;22969;-46
2023/05/13 06:02:03;;;;;;;7.40;3.80;;;;;;;15.75;56.41;100919.23;109942;1280;22180;-54
2023/05/13 06:04:30;;;;;;;16.20;3.90;;;;;;;15.96;55.91;100920.23;110031;1280;22266;-44
2023/05/13 06:06:57;;;;;;;7.90;3.90;;;;;;;16.17;55.23;100917.50;109885;1280;22256;-44
2023/05/13 06:09:24;;;;;;;16.10;3.30;;;;;;;16.36;54.39;100917.93;109905;1280;22421;-44
2023/05/13 06:11:52;;;;;;;9.10;3.30;;;;;;;16.56;52.95;100912.90;109486;1280;22533;-54
2023/05/13 06:14:19;;;;;;;7.80;3.20;;;;;;;16.77;51.69;100909.96;107982;1280;22583;-46
2023/05/13 06:16:47;;;;;;;8.80;3.00;;;;;;;17.00;49.47;100909.59;108150;1280;23113;-53
2023/05/13 06:19:14;;;;;;;3.80;2.90;;;;;;;17.23;46.96;100905.15;107679;1280;23165;-45
2023/05/13 06:21:43;;;;;;;6.70;3.00;;;;;;;17.43;45.38;100908.85;107174;1280;22524;-45
2023/05/13 06:24:10;;;;;;;5.50;3.00;;;;;;;17.61;44.55;100910.80;107377;1280;22541;-53
2023/05/13 06:26:39;;;;;;;7.90;3.40;;;;;;;17.76;44.24;100909.11;106710;1257;25474;-55
2023/05/13 06:29:06;;;;;;;9.20;3.60;;;;;;;17.91;43.96;100905.11;107414;1280;25278;-53
2023/05/13 06:31:33;;;;;;;6.70;2.90;;;;;;;18.04;43.19;100900.95;107003;1280;22524;-52
2023/05/13 06:34:00;;;;;;;10.80;3.30;;;;;;;18.20;42.08;100904.33;106789;1280;22535;-48
2023/05/13 06:36:27;;;;;;;10.20;3.40;;;;;;;18.32;40.64;100909.36;106720;1280;22614;-46
2023/05/13 06:38:55;;;;;;;9.30;3.40;;;;;;;18.43;40.40;100905.56;106765;1280;22563;-46
2023/05/13 06:41:22;;;;;;;7.80;3.40;;;;;;;18.56;40.08;100904.75;107140;1267;25306;-44
2023/05/13 06:43:51;;;;;;;9.80;3.80;;;;;;;18.70;40.28;100901.80;106936;1280;25413;-53
2023/05/13 06:46:22;;;;;;;6.30;3.20;;;;;;;18.85;39.70;100907.63;107099;1280;23160;-53
2023/05/13 06:48:51;;;;;;;7.10;3.10;;;;;;;18.99;38.36;100903.38;107108;1280;24213;-53
2023/05/13 06:51:18;;;;;;;8.50;3.20;;;;;;;19.14;37.14;100908.30;106752;1280;22744;-45
2023/05/13 06:53:46;;;;;;;6.30;2.80;;;;;;;19.28;35.70;100906.36;107049;1280;22649;-52
2023/05/13 06:56:13;;;;;;;7.50;3.40;;;;;;;19.40;36.18;100910.98;107070;1280;22518;-52
2023/05/13 06:58:40;;;;;;;8.10;3.20;;;;;;;19.49;36.16;100911.26;106662;1280;22537;-52
2023/05/13 07:01:07;;;;;;;6.50;3.20;;;;;;;19.58;36.36;100913.88;106943;1280;22523;-53
2023/05/13 07:03:34;;;;;;;5.20;2.60;;;;;;;19.67;35.69;100909.75;106970;1280;23889;-55
2023/05/13 07:06:01;;;;;;;11.30;3.30;;;;;;;19.75;35.13;100908.30;107207;1280;25277;-54
2023/05/13 07:08:28;;;;;;;14.40;3.30;;;;;;;19.83;35.12;100906.83;107387;1280;22551;-45
2023/05/13 07:10:55;;;;;;;7.10;2.90;;;;;;;19.93;34.58;100899.99;106633;1280;22144;-51
2023/05/13 07:13:22;;;;;;;9.90;3.50;;;;;;;20.02;34.39;100899.54;107227;1280;22512;-45
2023/05/13 07:15:48;;;;;;;5.40;3.00;;;;;;;20.11;34.28;100902.47;106924;1280;22597;-54
2023/05/13 07:18:16;;;;;;;11.30;3.70;;;;;;;20.23;34.01;100900.35;106842;1280;22537;-45
2023/05/13 07:20:43;;;;;;;13.80;3.80;;;;;;;20.36;33.77;100894.10;108685;1280;22571;-44
2023/05/13 07:23:10;;;;;;;22.60;4.30;;;;;;;20.48;33.22;100898.89;107847;1280;22292;-45
2023/05/13 07:25:37;;;;;;;8.60;3.50;;;;;;;20.57;32.69;100897.91;108151;1280;22632;-52
2023/05/13 07:28:03;;;;;;;6.50;3.30;;;;;;;20.62;32.55;100900.56;107542;1280;22655;-53
2023/05/13 07:30:30;;;;;;;3.60;2.50;;;;;;;20.68;33.06;100900.02;107007;1280;22534;-54
2023/05/13 07:32:57;;;;;;;7.70;3.10;;;;;;;20.76;32.59;100894.08;107490;1280;22636;-50
2023/05/13 07:35:25;;;;;;;6.60;3.60;;;;;;;20.81;32.20;100891.11;106971;1280;23896;-45
2023/05/13 07:37:52;;;;;;;5.20;2.80;;;;;;;20.84;31.85;100895.24;106803;1280;23394;-46
2023/05/13 07:40:19;;;;;;;9.50;3.30;;;;;;;20.91;31.92;100896.26;106568;1280;22530;-46
2023/05/13 07:42:47;;;;;;;6.60;3.00;;;;;;;20.97;31.66;100893.21;107002;1280;25405;-54
2023/05/13 07:45:14;;;;;;;6.10;3.00;;;;;;;21.05;31.58;100893.65;107374;1280;25405;-45
2023/05/13 07:47:41;;;;;;;6.60;3.30;;;;;;;21.11;31.53;100895.21;106880;1280;24237;-52
2023/05/13 07:50:10;;;;;;;11.00;2.80;;;;;;;21.19;31.79;100893.34;107088;1280;22539;-45
2023/05/13 07:52:37;;;;;;;5.20;2.20;;;;;;;21.25;30.87;100896.86;107452;1257;24266;-53
2023/05/13 07:55:04;;;;;;;5.40;3.00;;;;;;;21.29;31.30;100899.42;107017;1273;22524;-45
2023/05/13 07:57:32;;;;;;;3.30;2.00;;;;;;;21.34;30.64;100899.45;107019;1280;22599;-50
2023/05/13 07:59:59;;;;;;;9.30;2.70;;;;;;;21.41;30.67;100896.18;106890;1280;25284;-53
2023/05/13 08:02:26;;;;;;;4.80;2.30;;;;;;;21.47;30.28;100892.41;107407;1257;22530;-45
2023/05/13 08:04:53;;;;;;;4.00;2.40;;;;;;;21.52;29.85;100889.21;107105;1280;23823;-54
2023/05/13 08:07:20;;;;;;;5.90;1.80;;;;;;;21.58;29.52;100892.37;107223;1280;25472;-53
2023/05/13 08:09:47;;;;;;;2.90;1.60;;;;;;;21.61;29.15;100882.66;106922;1280;24865;-47
2023/05/13 08:12:14;;;;;;;8.40;1.80;;;;;;;21.57;29.03;100881.95;106901;1280;22228;-45
2023/05/13 08:14:41;;;;;;;5.50;1.80;;;;;;;21.52;29.19;100880.70;107032;1280;25223;-45
2023/05/13 08:17:08;;;;;;;7.80;2.50;;;;;;;21.58;29.40;100882.27;106824;1263;22659;-47
2023/05/13 08:19:35;;;;;;;2.90;1.90;;;;;;;21.67;29.06;100881.39;106781;1280;22528;-46
2023/05/13 08:22:02;;;;;;;5.20;2.10;;;;;;;21.76;28.90;100880.67;107178;1280;24381;-46
2023/05/13 08:24:29;;;;;;;4.90;2.10;;;;;;;21.82;28.58;100881.38;106910;1280;22530;-51
2023/05/13 08:26:56;;;;;;;3.60;1.90;;;;;;;21.89;29.79;100880.21;107148;1280;23926;-45
2023/05/13 08:29:23;;;;;;;10.60;1.90;;;;;;;22.00;28.57;100878.35;106952;1280;22549;-52
2023/05/13 08:31:50;;;;;;;3.20;1.80;;;;;;;22.11;28.44;100874.62;107038;1280;24337;-46
2023/05/13 08:34:17;;;;;;;2.30;1.60;;;;;;;22.17;28.98;100874.55;106753;1280;25291;-46
2023/05/13 08:36:44;;;;;;;2.80;1.80;;;;;;;22.24;28.89;100870.71;106879;1280;24413;-54
2023/05/13 08:39:12;;;;;;;5.50;1.80;;;;;;;22.35;28.32;100864.80;106675;1280;22534;-47
2023/05/13 08:41:39;;;;;;;3.40;1.80;;;;;;;22.44;28.62;100864.27;106771;1280;22544;-53
2023/05/13 08:44:06;;;;;;;2.90;1.50;;;;;;;22.52;27.82;100865.52;106944;1280;24410;-54
2023/05/13 08:46:33;;;;;;;2.10;1.60;;;;;;;22.63;27.67;100867.39;106658;1280;24240;-45
2023/05/13 08:49:00;;;;;;;1.50;1.30;;;;;;;22.68;27.49;100861.48;106945;1280;22608;-54
2023/05/13 08:51:27;;;;;;;4.10;1.70;;;;;;;22.71;27.19;100855.86;106999;1280;22529;-54
2023/05/13 08:53:54;;;;;;;2.70;1.80;;;;;;;22.79;27.09;100857.11;107072;1280;22305;-53
2023/05/13 08:56:24;;;;;;;6.50;1.50;;;;;;;22.88;25.95;100848.09;106696;1280;22656;-46
2023/05/13 08:58:51;;;;;;;3.70;1.30;;;;;;;22.89;26.41;100852.48;106571;1280;22540;-45
2023/05/13 09:01:18;;;;;;;5.50;1.50;;;;;;;22.93;26.48;100851.59;107051;1280;25275;-53
2023/05/13 09:03:58;;;;;;;1.70;1.30;;;;;;;22.99;26.86;100854.52;106557;1280;22535;-54
2023/05/13 09:06:25;;;;;;;4.80;1.80;;;;;;;23.06;27.24;100851.17;106856;1280;22555;-46
2023/05/13 09:08:52;;;;;;;4.60;1.50;;;;;;;23.04;26.60;100845.77;107054;1280;24045;-45
2023/05/13 09:11:19;;;;;;;1.40;1.30;;;;;;;22.92;25.86;100843.46;107469;1280;22513;-45
2023/05/13 09:13:57;;;;;;;3.00;1.70;;;;;;;22.84;26.68;100845.52;107540;1280;22537;-53
2023/05/13 09:16:25;;;;;;;2.50;1.70;;;;;;;22.83;26.84;100842.17;106421;1280;22529;-52
2023/05/13 09:19:01;;;;;;;6.00;1.90;;;;;;;22.86;27.36;100843.86;106759;1280;22520;-48
2023/05/13 09:21:30;;;;;;;2.60;1.40;;;;;;;22.91;27.06;100838.54;107341;1280;22322;-54
2023/05/13 09:24:04;;;;;;;4.10;1.40;;;;;;;22.89;25.59;100831.64;106911;1280;22662;-46
2023/05/13 09:26:33;;;;;;;9.30;1.60;;;;;;;22.92;26.01;100831.19;106786;1280;22544;-45
2023/05/13 09:29:33;;;;;;;2.70;1.50;;;;;;;23.02;25.96;100832.89;106824;1280;22549;-53
2023/05/13 09:32:00;;;;;;;5.50;1.40;;;;;;;23.13;25.48;100827.44;106540;1286;22565;-54
2023/05/13 09:34:28;;;;;;;2.10;1.10;;;;;;;23.21;25.36;100818.70;106506;1286;22631;-54
2023/05/13 09:37:07;;;;;;;2.50;1.50;;;;;;;23.34;25.66;100815.97;106520;1286;25306;-52
2023/05/13 09:39:38;;;;;;;4.40;1.60;;;;;;;23.46;25.14;100810.86;106277;1286;22666;-57
2023/05/13 09:42:14;;;;;;;2.40;1.60;;;;;;;23.55;25.01;100805.27;106601;1286;25903;-46
2023/05/13 09:44:42;;;;;;;4.00;1.40;;;;;;;23.65;24.90;100795.59;106529;1286;22556;-45
2023/05/13 09:47:15;;;;;;;2.90;1.30;;;;;;;23.71;24.71;100787.42;106395;1286;25424;-53
2023/05/13 09:49:43;;;;;;;3.00;1.60;;;;;;;23.77;25.17;100793.41;106363;1286;22551;-44
2023/05/13 09:52:10;;;;;;;4.70;1.20;;;;;;;23.79;24.99;100790.27;107176;1286;24303;-53
2023/05/13 09:54:37;;;;;;;2.40;1.60;;;;;;;23.84;24.23;100789.70;106712;1286;22907;-53
2023/05/13 09:57:05;;;;;;;1.30;1.10;;;;;;;23.91;23.39;100792.58;106494;1286;22618;-53
2023/05/13 09:59:33;;;;;;;6.60;1.40;;;;;;;23.96;23.66;100794.13;106566;1286;25863;-53
2023/05/13 10:02:04;;;;;;;1.90;1.30;;;;;;;23.97;23.81;100789.48;107070;1286;22537;-54
2023/05/13 10:04:31;;;;;;;1.90;1.70;;;;;;;23.98;24.38;100788.48;106529;1286;25295;-46
2023/05/13 10:06:58;;;;;;;5.30;1.70;;;;;;;23.99;24.28;100788.43;106915;1280;22560;-46
2023/05/13 10:09:26;;;;;;;2.90;1.50;;;;;;;23.99;24.82;100784.36;106832;1280;22529;-45
2023/05/13 10:11:53;;;;;;;4.70;1.60;;;;;;;23.97;24.32;100780.33;107104;1280;25271;-46
2023/05/13 10:14:20;;;;;;;2.70;1.60;;;;;;;23.90;24.92;100782.47;107025;1265;22514;-46
2023/05/13 10:16:48;;;;;;;3.90;1.70;;;;;;;23.84;25.86;100780.95;106879;1280;22565;-54
2023/05/13 10:19:15;;;;;;;3.20;1.70;;;;;;;23.73;26.29;100776.32;107915;1280;23080;-46
2023/05/13 10:21:42;;;;;;;5.30;1.50;;;;;;;23.63;26.20;100776.98;110044;1280;22412;-54
2023/05/13 10:24:09;;;;;;;2.60;1.90;;;;;;;23.42;25.62;100775.05;107180;1280;22553;-46
2023/05/13 10:26:36;;;;;;;2.90;1.60;;;;;;;23.08;26.00;100779.63;108751;1280;22664;-44
2023/05/13 10:29:03;;;;;;;4.80;1.70;;;;;;;22.81;26.48;100781.65;106835;1280;22559;-45
2023/05/13 10:31:29;;;;;;;3.30;1.50;;;;;;;22.65;27.01;100778.44;106821;1280;22537;-46
2023/05/13 10:33:57;;;;;;;5.50;1.70;;;;;;;22.48;26.52;100776.83;108514;1280;22359;-46
2023/05/13 10:36:26;;;;;;;2.00;1.60;;;;;;;22.27;26.23;100776.27;108883;1280;23674;-45
2023/05/13 10:39:32;;;;;;;5.10;2.00;;;;;;;22.08;26.80;100773.12;110024;1280;22296;-54
2023/05/13 10:42:17;;;;;;;7.10;2.10;;;;;;;22.25;26.89;100770.13;109657;1286;22422;-53
2023/05/13 10:44:44;;;;;;;4.30;1.60;;;;;;;22.33;27.56;100768.94;109488;1286;22377;-53
2023/05/13 10:47:10;;;;;;;6.50;1.70;;;;;;;22.44;26.84;100765.95;109660;1286;22383;-45
2023/05/13 10:49:38;;;;;;;3.20;1.30;;;;;;;22.50;26.82;100768.55;108471;1287;22355;-53
2023/05/13 10:52:06;;;;;;;3.90;1.30;;;;;;;22.48;26.17;100769.02;107762;1286;23874;-45
2023/05/13 10:54:41;;;;;;;4.90;1.40;;;;;;;22.43;26.25;100772.95;106468;1286;25463;-47
2023/05/13 10:57:08;;;;;;;9.00;1.80;;;;;;;22.44;26.83;100775.23;106835;1286;24240;-46
2023/05/13 10:59:37;;;;;;;5.30;1.20;;;;;;;22.56;26.61;100771.86;106676;1286;25412;-46
2023/05/13 11:02:23;;;;;;;4.30;1.40;;;;;;;22.76;26.23;100766.21;106351;1286;22798;-45
2023/05/13 11:04:59;;;;;;;4.60;1.80;;;;;;;23.07;25.24;100768.80;106539;1286;22535;-45
2023/05/13 11:07:29;;;;;;;2.90;1.40;;;;;;;23.28;24.96;100764.14;106809;1286;24199;-54
2023/05/13 11:09:58;;;;;;;2.70;1.70;;;;;;;23.33;25.07;100761.38;106598;1268;24531;-53
2023/05/13 11:12:25;;;;;;;1.50;1.30;;;;;;;23.31;24.95;100757.07;106157;1286;22539;-45
2023/05/13 11:14:55;;;;;;;2.20;2.00;;;;;;;23.26;25.14;100756.59;106139;1286;22783;-47
2023/05/13 11:17:22;;;;;;;1.40;1.30;;;;;;;23.21;25.25;100754.65;106681;1286;22546;-55
2023/05/13 11:19:49;;;;;;;3.70;1.30;;;;;;;23.16;25.33;100757.36;106873;1280;22792;-46
2023/05/13 11:22:20;;;;;;;3.20;1.40;;;;;;;23.11;25.25;100757.95;106833;1280;22527;-53